West Andover, Ohio
Current Conditions -  °F | °C
As of 5:53 AM on Monday 20 Oct 2014 (Local Time) from KHZY Reporting Station
Overcast Overcast  
Wind Chill:   Ceiling: 10000
Heat Index:   Visibility: 10mi
Dew Point:   Wind: 9mph
Humidity: 71%   Direction: 190°S
Pressure: 29.97"   Gusts: NA
Location:  41.6317°N, 80.577°W
Report Text: KHZY 200953Z AUTO 19008KT 10SM OVC100 07/02 A2997 RMK AO2 SLP151 T00720022
Loading
Personal Weather Stations






























Interactive Weather Map
Tropical Storm Tracking
New forecast layout! Learn more

10-Day Weather Forecast

Advertisements
Track Severe Weather on mobile